sensor_id;sensor_type;location;lat;lon;timestamp;pressure;altitude;pressure_sealevel;temperature;humidity
19600;BME280;9947;57.722;12.012;2022-09-23T00:00:12;101459.78;;;7.16;85.44
19600;BME280;9947;57.722;12.012;2022-09-23T00:02:44;101461.69;;;7.14;85.83
19600;BME280;9947;57.722;12.012;2022-09-23T00:05:12;101452.19;;;7.06;85.89
19600;BME280;9947;57.722;12.012;2022-09-23T00:07:40;101450.38;;;7.07;85.99
19600;BME280;9947;57.722;12.012;2022-09-23T00:10:07;101439.47;;;7.10;86.47
19600;BME280;9947;57.722;12.012;2022-09-23T00:12:34;101441.03;;;7.14;86.84
19600;BME280;9947;57.722;12.012;2022-09-23T00:15:01;101440.88;;;7.17;86.70
19600;BME280;9947;57.722;12.012;2022-09-23T00:17:30;101443.31;;;7.22;86.45
19600;BME280;9947;57.722;12.012;2022-09-23T00:19:57;101434.88;;;7.29;86.51
19600;BME280;9947;57.722;12.012;2022-09-23T00:22:24;101437.09;;;7.21;86.88
19600;BME280;9947;57.722;12.012;2022-09-23T00:24:55;101434.06;;;7.27;86.38
19600;BME280;9947;57.722;12.012;2022-09-23T00:27:22;101431.09;;;7.33;86.32
19600;BME280;9947;57.722;12.012;2022-09-23T00:29:48;101432.19;;;7.29;86.13
19600;BME280;9947;57.722;12.012;2022-09-23T00:32:15;101434.88;;;7.29;85.98
19600;BME280;9947;57.722;12.012;2022-09-23T00:34:45;101429.25;;;7.34;86.04
19600;BME280;9947;57.722;12.012;2022-09-23T00:37:12;101427.13;;;7.40;86.06
19600;BME280;9947;57.722;12.012;2022-09-23T00:39:39;101431.13;;;7.49;86.11
19600;BME280;9947;57.722;12.012;2022-09-23T00:42:12;101427.13;;;7.40;86.21
19600;BME280;9947;57.722;12.012;2022-09-23T00:44:46;101422.94;;;7.35;86.40
19600;BME280;9947;57.722;12.012;2022-09-23T00:47:17;101419.63;;;7.30;86.28
19600;BME280;9947;57.722;12.012;2022-09-23T00:49:48;101419.66;;;7.28;86.32
19600;BME280;9947;57.722;12.012;2022-09-23T00:52:19;101412.78;;;7.23;86.25
19600;BME280;9947;57.722;12.012;2022-09-23T00:54:51;101414.84;;;7.18;86.42
19600;BME280;9947;57.722;12.012;2022-09-23T00:57:22;101417.81;;;7.30;86.75
19600;BME280;9947;57.722;12.012;2022-09-23T00:59:49;101409.00;;;7.27;86.71
19600;BME280;9947;57.722;12.012;2022-09-23T01:02:18;101411.59;;;7.28;86.89
19600;BME280;9947;57.722;12.012;2022-09-23T01:04:47;101415.19;;;7.29;87.16
19600;BME280;9947;57.722;12.012;2022-09-23T01:07:15;101411.22;;;7.19;87.25
19600;BME280;9947;57.722;12.012;2022-09-23T01:09:42;101404.09;;;7.18;87.74
19600;BME280;9947;57.722;12.012;2022-09-23T01:12:25;101402.44;;;7.15;87.62
19600;BME280;9947;57.722;12.012;2022-09-23T01:15:02;101407.81;;;7.15;87.64
19600;BME280;9947;57.722;12.012;2022-09-23T01:17:36;101398.44;;;7.06;87.99
19600;BME280;9947;57.722;12.012;2022-09-23T01:20:26;101400.97;;;7.09;88.43
19600;BME280;9947;57.722;12.012;2022-09-23T01:23:04;101391.22;;;7.07;88.27
19600;BME280;9947;57.722;12.012;2022-09-23T01:25:49;101389.88;;;6.98;88.14
19600;BME280;9947;57.722;12.012;2022-09-23T01:28:39;101393.25;;;7.02;88.54
19600;BME280;9947;57.722;12.012;2022-09-23T01:31:15;101392.09;;;7.07;88.62
19600;BME280;9947;57.722;12.012;2022-09-23T01:33:50;101390.28;;;7.08;88.74
19600;BME280;9947;57.722;12.012;2022-09-23T01:36:26;101384.31;;;7.01;89.17
19600;BME280;9947;57.722;12.012;2022-09-23T01:38:58;101385.28;;;7.00;89.02
19600;BME280;9947;57.722;12.012;2022-09-23T01:41:41;101376.84;;;7.08;88.98
19600;BME280;9947;57.722;12.012;2022-09-23T01:44:18;101363.00;;;7.16;89.26
19600;BME280;9947;57.722;12.012;2022-09-23T01:46:51;101370.09;;;7.17;89.46
19600;BME280;9947;57.722;12.012;2022-09-23T01:49:21;101368.38;;;7.16;89.61
19600;BME280;9947;57.722;12.012;2022-09-23T01:51:56;101366.47;;;7.18;89.92
19600;BME280;9947;57.722;12.012;2022-09-23T01:54:28;101368.38;;;7.16;90.05
19600;BME280;9947;57.722;12.012;2022-09-23T01:56:59;101359.81;;;7.25;89.82
19600;BME280;9947;57.722;12.012;2022-09-23T01:59:36;101356.41;;;7.21;89.98
19600;BME280;9947;57.722;12.012;2022-09-23T02:02:08;101354.84;;;7.17;90.20
19600;BME280;9947;57.722;12.012;2022-09-23T02:04:46;101353.63;;;7.23;89.97
19600;BME280;9947;57.722;12.012;2022-09-23T02:07:18;101348.44;;;7.20;89.92
19600;BME280;9947;57.722;12.012;2022-09-23T02:09:50;101349.22;;;7.22;89.86
19600;BME280;9947;57.722;12.012;2022-09-23T02:12:20;101340.81;;;7.28;89.79
19600;BME280;9947;57.722;12.012;2022-09-23T02:15:00;101344.06;;;7.34;89.99
19600;BME280;9947;57.722;12.012;2022-09-23T02:17:33;101341.75;;;7.44;90.15
19600;BME280;9947;57.722;12.012;2022-09-23T02:20:05;101333.31;;;7.50;90.13
19600;BME280;9947;57.722;12.012;2022-09-23T02:22:38;101330.19;;;7.42;90.30
19600;BME280;9947;57.722;12.012;2022-09-23T02:25:09;101330.69;;;7.33;90.51
19600;BME280;9947;57.722;12.012;2022-09-23T02:27:40;101331.44;;;7.19;90.62
19600;BME280;9947;57.722;12.012;2022-09-23T02:30:13;101331.59;;;7.16;90.72
19600;BME280;9947;57.722;12.012;2022-09-23T02:32:50;101330.97;;;7.11;90.81
19600;BME280;9947;57.722;12.012;2022-09-23T02:35:24;101327.41;;;7.10;90.89
19600;BME280;9947;57.722;12.012;2022-09-23T02:38:04;101324.66;;;7.12;90.82
19600;BME280;9947;57.722;12.012;2022-09-23T02:40:36;101314.06;;;7.09;91.37
19600;BME280;9947;57.722;12.012;2022-09-23T02:43:09;101322.50;;;7.19;91.20
19600;BME280;9947;57.722;12.012;2022-09-23T02:45:38;101317.94;;;7.03;91.34
19600;BME280;9947;57.722;12.012;2022-09-23T02:48:08;101316.50;;;6.96;91.52
19600;BME280;9947;57.722;12.012;2022-09-23T02:50:38;101323.16;;;6.89;91.75
19600;BME280;9947;57.722;12.012;2022-09-23T02:53:05;101315.09;;;6.89;91.70
19600;BME280;9947;57.722;12.012;2022-09-23T02:55:32;101319.19;;;6.96;91.69
19600;BME280;9947;57.722;12.012;2022-09-23T02:58:02;101317.22;;;7.00;91.89
19600;BME280;9947;57.722;12.012;2022-09-23T03:00:40;101321.09;;;7.11;91.92
19600;BME280;9947;57.722;12.012;2022-09-23T03:03:27;101313.06;;;7.27;92.01
19600;BME280;9947;57.722;12.012;2022-09-23T03:05:57;101312.50;;;7.38;92.08
19600;BME280;9947;57.722;12.012;2022-09-23T03:08:40;101302.59;;;7.54;91.94
19600;BME280;9947;57.722;12.012;2022-09-23T03:11:10;101300.56;;;7.59;92.04
19600;BME280;9947;57.722;12.012;2022-09-23T03:13:51;101302.59;;;7.54;92.13
19600;BME280;9947;57.722;12.012;2022-09-23T03:16:27;101295.88;;;7.63;92.24
19600;BME280;9947;57.722;12.012;2022-09-23T03:19:02;101296.56;;;7.66;92.24
19600;BME280;9947;57.722;12.012;2022-09-23T03:21:37;101293.09;;;7.64;92.09
19600;BME280;9947;57.722;12.012;2022-09-23T03:24:08;101290.50;;;7.63;92.24
19600;BME280;9947;57.722;12.012;2022-09-23T03:26:39;101287.72;;;7.64;91.74
19600;BME280;9947;57.722;12.012;2022-09-23T03:29:08;101291.00;;;7.69;91.67
19600;BME280;9947;57.722;12.012;2022-09-23T03:31:37;101286.41;;;7.71;91.57
19600;BME280;9947;57.722;12.012;2022-09-23T03:34:15;101283.63;;;7.73;91.37
19600;BME280;9947;57.722;12.012;2022-09-23T03:36:48;101284.50;;;7.73;91.36
19600;BME280;9947;57.722;12.012;2022-09-23T03:39:27;101277.19;;;7.76;90.85
19600;BME280;9947;57.722;12.012;2022-09-23T03:41:58;101275.72;;;7.70;90.69
19600;BME280;9947;57.722;12.012;2022-09-23T03:44:33;101280.34;;;7.84;90.41
19600;BME280;9947;57.722;12.012;2022-09-23T03:47:05;101275.16;;;7.81;89.88
19600;BME280;9947;57.722;12.012;2022-09-23T03:49:35;101274.09;;;7.83;89.72
19600;BME280;9947;57.722;12.012;2022-09-23T03:52:05;101274.69;;;7.88;89.36
19600;BME280;9947;57.722;12.012;2022-09-23T03:54:32;101272.97;;;7.87;88.81
19600;BME280;9947;57.722;12.012;2022-09-23T03:56:59;101270.38;;;7.86;88.45
19600;BME280;9947;57.722;12.012;2022-09-23T03:59:28;101266.63;;;7.88;87.99
19600;BME280;9947;57.722;12.012;2022-09-23T04:01:55;101263.47;;;7.96;87.68
19600;BME280;9947;57.722;12.012;2022-09-23T04:04:26;101264.25;;;7.98;87.40
19600;BME280;9947;57.722;12.012;2022-09-23T04:06:54;101265.72;;;8.03;87.03
19600;BME280;9947;57.722;12.012;2022-09-23T04:09:21;101258.59;;;8.02;86.95
19600;BME280;9947;57.722;12.012;2022-09-23T04:11:48;101260.97;;;8.09;86.35
19600;BME280;9947;57.722;12.012;2022-09-23T04:14:25;101257.41;;;8.08;86.23
19600;BME280;9947;57.722;12.012;2022-09-23T04:16:52;101253.75;;;8.09;85.75
19600;BME280;9947;57.722;12.012;2022-09-23T04:19:18;101254.63;;;8.10;85.60
19600;BME280;9947;57.722;12.012;2022-09-23T04:21:45;101245.41;;;7.98;85.35
19600;BME280;9947;57.722;12.012;2022-09-23T04:24:15;101247.59;;;8.07;85.03
19600;BME280;9947;57.722;12.012;2022-09-23T04:26:43;101232.16;;;8.25;84.71
19600;BME280;9947;57.722;12.012;2022-09-23T04:29:09;101241.59;;;8.33;84.85
19600;BME280;9947;57.722;12.012;2022-09-23T04:31:37;101240.84;;;8.46;84.99
19600;BME280;9947;57.722;12.012;2022-09-23T04:34:04;101235.84;;;8.54;85.15
19600;BME280;9947;57.722;12.012;2022-09-23T04:36:31;101235.88;;;8.68;84.96
19600;BME280;9947;57.722;12.012;2022-09-23T04:38:59;101233.97;;;8.70;84.97
19600;BME280;9947;57.722;12.012;2022-09-23T04:41:28;101232.81;;;8.74;85.22
19600;BME280;9947;57.722;12.012;2022-09-23T04:43:55;101238.00;;;8.77;85.40
19600;BME280;9947;57.722;12.012;2022-09-23T04:46:22;101240.81;;;8.76;85.29
19600;BME280;9947;57.722;12.012;2022-09-23T04:48:49;101237.44;;;8.72;85.49
19600;BME280;9947;57.722;12.012;2022-09-23T04:51:19;101232.63;;;8.77;85.31
19600;BME280;9947;57.722;12.012;2022-09-23T04:53:47;101238.59;;;8.82;85.17
19600;BME280;9947;57.722;12.012;2022-09-23T04:56:17;101229.72;;;8.80;85.00
19600;BME280;9947;57.722;12.012;2022-09-23T04:58:45;101232.72;;;8.76;84.77
19600;BME280;9947;57.722;12.012;2022-09-23T05:01:16;101232.44;;;8.80;84.71
19600;BME280;9947;57.722;12.012;2022-09-23T05:03:44;101236.84;;;8.81;84.17
19600;BME280;9947;57.722;12.012;2022-09-23T05:06:13;101228.88;;;8.80;84.27
19600;BME280;9947;57.722;12.012;2022-09-23T05:08:40;101231.47;;;8.81;84.00
19600;BME280;9947;57.722;12.012;2022-09-23T05:11:07;101227.56;;;8.87;83.68
19600;BME280;9947;57.722;12.012;2022-09-23T05:13:36;101226.50;;;8.89;83.33
19600;BME280;9947;57.722;12.012;2022-09-23T05:16:06;101228.03;;;8.93;83.05
19600;BME280;9947;57.722;12.012;2022-09-23T05:18:35;101227.84;;;8.96;82.60
19600;BME280;9947;57.722;12.012;2022-09-23T05:21:03;101230.44;;;8.98;82.15
19600;BME280;9947;57.722;12.012;2022-09-23T05:23:45;101226.78;;;8.99;81.77
19600;BME280;9947;57.722;12.012;2022-09-23T05:26:13;101230.16;;;9.03;81.37
19600;BME280;9947;57.722;12.012;2022-09-23T05:28:40;101225.53;;;9.05;80.25
19600;BME280;9947;57.722;12.012;2022-09-23T05:31:09;101228.88;;;9.08;80.12
19600;BME280;9947;57.722;12.012;2022-09-23T05:33:39;101233.16;;;9.12;79.59
19600;BME280;9947;57.722;12.012;2022-09-23T05:36:06;101236.31;;;9.19;79.12
19600;BME280;9947;57.722;12.012;2022-09-23T05:38:33;101229.66;;;9.24;78.86
19600;BME280;9947;57.722;12.012;2022-09-23T05:41:02;101230.13;;;9.31;78.28
19600;BME280;9947;57.722;12.012;2022-09-23T05:43:29;101226.28;;;9.35;78.04
19600;BME280;9947;57.722;12.012;2022-09-23T05:46:04;101229.47;;;9.42;77.29
19600;BME280;9947;57.722;12.012;2022-09-23T05:48:33;101222.81;;;9.47;76.86
19600;BME280;9947;57.722;12.012;2022-09-23T05:51:01;101224.44;;;9.50;77.08
19600;BME280;9947;57.722;12.012;2022-09-23T05:53:29;101223.63;;;9.62;76.61
19600;BME280;9947;57.722;12.012;2022-09-23T05:55:56;101229.63;;;9.67;76.33
19600;BME280;9947;57.722;12.012;2022-09-23T05:58:23;101224.88;;;9.71;76.68
19600;BME280;9947;57.722;12.012;2022-09-23T06:00:52;101226.50;;;9.73;76.72
19600;BME280;9947;57.722;12.012;2022-09-23T06:03:20;101228.69;;;9.81;77.12
19600;BME280;9947;57.722;12.012;2022-09-23T06:05:51;101226.19;;;9.92;76.76
19600;BME280;9947;57.722;12.012;2022-09-23T06:08:18;101226.75;;;9.97;77.36
19600;BME280;9947;57.722;12.012;2022-09-23T06:10:45;101231.72;;;10.03;77.13
19600;BME280;9947;57.722;12.012;2022-09-23T06:13:13;101232.59;;;10.04;77.59
19600;BME280;9947;57.722;12.012;2022-09-23T06:15:40;101232.84;;;10.13;78.09
19600;BME280;9947;57.722;12.012;2022-09-23T06:18:10;101230.88;;;10.30;78.09
19600;BME280;9947;57.722;12.012;2022-09-23T06:20:37;101233.41;;;10.45;78.36
19600;BME280;9947;57.722;12.012;2022-09-23T06:23:07;101229.09;;;10.56;79.00
19600;BME280;9947;57.722;12.012;2022-09-23T06:25:35;101222.75;;;10.69;79.50
19600;BME280;9947;57.722;12.012;2022-09-23T06:28:03;101229.25;;;10.79;80.66
19600;BME280;9947;57.722;12.012;2022-09-23T06:30:31;101226.53;;;10.92;82.49
19600;BME280;9947;57.722;12.012;2022-09-23T06:32:59;101227.97;;;10.98;83.19
19600;BME280;9947;57.722;12.012;2022-09-23T06:35:26;101228.59;;;11.14;84.65
19600;BME280;9947;57.722;12.012;2022-09-23T06:37:53;101228.47;;;11.16;85.25
19600;BME280;9947;57.722;12.012;2022-09-23T06:40:23;101232.16;;;11.15;86.45
19600;BME280;9947;57.722;12.012;2022-09-23T06:42:56;101222.75;;;11.20;87.18
19600;BME280;9947;57.722;12.012;2022-09-23T06:45:23;101235.31;;;11.21;87.57
19600;BME280;9947;57.722;12.012;2022-09-23T06:47:52;101221.97;;;11.18;87.44
19600;BME280;9947;57.722;12.012;2022-09-23T06:50:20;101224.25;;;11.24;87.99
19600;BME280;9947;57.722;12.012;2022-09-23T06:52:50;101230.28;;;11.40;88.94
19600;BME280;9947;57.722;12.012;2022-09-23T06:55:23;101226.59;;;11.41;89.59
19600;BME280;9947;57.722;12.012;2022-09-23T06:57:52;101226.06;;;11.49;90.22
19600;BME280;9947;57.722;12.012;2022-09-23T07:00:19;101226.53;;;11.67;91.36
19600;BME280;9947;57.722;12.012;2022-09-23T07:02:46;101221.34;;;11.77;93.54
19600;BME280;9947;57.722;12.012;2022-09-23T07:05:13;101219.47;;;11.90;95.37
19600;BME280;9947;57.722;12.012;2022-09-23T07:07:42;101218.19;;;11.83;96.15
19600;BME280;9947;57.722;12.012;2022-09-23T07:10:10;101223.00;;;12.03;96.57
19600;BME280;9947;57.722;12.012;2022-09-23T07:12:38;101213.19;;;12.13;97.79
19600;BME280;9947;57.722;12.012;2022-09-23T07:15:06;101214.50;;;12.08;98.09
19600;BME280;9947;57.722;12.012;2022-09-23T07:17:34;101216.28;;;12.20;98.69
19600;BME280;9947;57.722;12.012;2022-09-23T07:20:04;101221.78;;;12.31;100.00
19600;BME280;9947;57.722;12.012;2022-09-23T07:22:35;101216.81;;;12.25;100.00
19600;BME280;9947;57.722;12.012;2022-09-23T07:25:03;101213.53;;;12.32;100.00
19600;BME280;9947;57.722;12.012;2022-09-23T07:27:30;101213.66;;;12.42;100.00
19600;BME280;9947;57.722;12.012;2022-09-23T07:29:59;101221.84;;;12.53;100.00
19600;BME280;9947;57.722;12.012;2022-09-23T07:32:26;101216.19;;;12.56;100.00
19600;BME280;9947;57.722;12.012;2022-09-23T07:34:53;101216.19;;;12.56;100.00
19600;BME280;9947;57.722;12.012;2022-09-23T07:37:20;101211.75;;;12.55;100.00
19600;BME280;9947;57.722;12.012;2022-09-23T07:39:47;101219.41;;;12.61;100.00
19600;BME280;9947;57.722;12.012;2022-09-23T07:42:15;101211.06;;;12.76;100.00
19600;BME280;9947;57.722;12.012;2022-09-23T07:44:42;101215.41;;;12.78;100.00
19600;BME280;9947;57.722;12.012;2022-09-23T07:47:11;101213.13;;;12.72;100.00
19600;BME280;9947;57.722;12.012;2022-09-23T07:49:40;101213.66;;;12.77;100.00
19600;BME280;9947;57.722;12.012;2022-09-23T07:52:07;101209.69;;;12.70;100.00
19600;BME280;9947;57.722;12.012;2022-09-23T07:54:37;101207.59;;;12.74;100.00
19600;BME280;9947;57.722;12.012;2022-09-23T07:57:04;101208.81;;;12.58;100.00
19600;BME280;9947;57.722;12.012;2022-09-23T07:59:30;101211.63;;;12.57;100.00
19600;BME280;9947;57.722;12.012;2022-09-23T08:01:57;101207.44;;;12.53;100.00
19600;BME280;9947;57.722;12.012;2022-09-23T08:04:28;101210.78;;;12.56;100.00
19600;BME280;9947;57.722;12.012;2022-09-23T08:06:56;101204.84;;;12.51;100.00
19600;BME280;9947;57.722;12.012;2022-09-23T08:09:26;101207.69;;;12.50;100.00
19600;BME280;9947;57.722;12.012;2022-09-23T08:11:53;101203.75;;;12.54;100.00
19600;BME280;9947;57.722;12.012;2022-09-23T08:14:20;101205.59;;;12.53;100.00
19600;BME280;9947;57.722;12.012;2022-09-23T08:16:50;101195.75;;;12.63;100.00
19600;BME280;9947;57.722;12.012;2022-09-23T08:19:21;101200.22;;;12.76;100.00
19600;BME280;9947;57.722;12.012;2022-09-23T08:21:49;101203.56;;;12.79;100.00
19600;BME280;9947;57.722;12.012;2022-09-23T08:24:19;101205.53;;;12.88;100.00
19600;BME280;9947;57.722;12.012;2022-09-23T08:26:49;101201.84;;;12.89;100.00
19600;BME280;9947;57.722;12.012;2022-09-23T08:29:23;101206.50;;;12.76;100.00
19600;BME280;9947;57.722;12.012;2022-09-23T08:31:51;101195.53;;;13.00;100.00
19600;BME280;9947;57.722;12.012;2022-09-23T08:34:19;101196.69;;;13.09;100.00
19600;BME280;9947;57.722;12.012;2022-09-23T08:36:48;101195.47;;;13.35;100.00
19600;BME280;9947;57.722;12.012;2022-09-23T08:39:22;101195.59;;;13.45;100.00
19600;BME280;9947;57.722;12.012;2022-09-23T08:42:01;101194.91;;;13.75;100.00
19600;BME280;9947;57.722;12.012;2022-09-23T08:44:40;101199.09;;;13.79;100.00
19600;BME280;9947;57.722;12.012;2022-09-23T08:47:15;101197.44;;;13.99;100.00
19600;BME280;9947;57.722;12.012;2022-09-23T08:49:50;101194.66;;;14.21;100.00
19600;BME280;9947;57.722;12.012;2022-09-23T08:52:24;101187.94;;;14.36;100.00
19600;BME280;9947;57.722;12.012;2022-09-23T08:54:55;101190.13;;;14.42;100.00
19600;BME280;9947;57.722;12.012;2022-09-23T08:57:32;101196.53;;;14.73;100.00
19600;BME280;9947;57.722;12.012;2022-09-23T09:00:01;101183.22;;;14.80;100.00
19600;BME280;9947;57.722;12.012;2022-09-23T09:02:29;101186.97;;;14.58;100.00
19600;BME280;9947;57.722;12.012;2022-09-23T09:05:00;101178.41;;;14.84;100.00
19600;BME280;9947;57.722;12.012;2022-09-23T09:07:32;101173.41;;;14.89;100.00
19600;BME280;9947;57.722;12.012;2022-09-23T09:10:08;101177.47;;;14.73;100.00
19600;BME280;9947;57.722;12.012;2022-09-23T09:12:41;101180.66;;;15.09;100.00
19600;BME280;9947;57.722;12.012;2022-09-23T09:15:18;101170.41;;;15.22;100.00
19600;BME280;9947;57.722;12.012;2022-09-23T09:17:55;101172.31;;;15.31;100.00
19600;BME280;9947;57.722;12.012;2022-09-23T09:20:35;101174.94;;;15.42;100.00
19600;BME280;9947;57.722;12.012;2022-09-23T09:23:18;101165.25;;;15.59;100.00
19600;BME280;9947;57.722;12.012;2022-09-23T09:25:51;101168.94;;;15.49;100.00
19600;BME280;9947;57.722;12.012;2022-09-23T09:28:22;101164.31;;;15.70;100.00
19600;BME280;9947;57.722;12.012;2022-09-23T09:30:55;101160.34;;;15.53;100.00
19600;BME280;9947;57.722;12.012;2022-09-23T09:33:29;101156.22;;;15.59;100.00
19600;BME280;9947;57.722;12.012;2022-09-23T09:36:05;101146.25;;;15.38;100.00
19600;BME280;9947;57.722;12.012;2022-09-23T09:38:34;101148.00;;;15.49;100.00
19600;BME280;9947;57.722;12.012;2022-09-23T09:41:11;101140.56;;;15.51;100.00
19600;BME280;9947;57.722;12.012;2022-09-23T09:43:39;101149.13;;;15.37;100.00
19600;BME280;9947;57.722;12.012;2022-09-23T09:46:22;101142.41;;;15.41;100.00
19600;BME280;9947;57.722;12.012;2022-09-23T09:48:56;101142.63;;;15.28;100.00
19600;BME280;9947;57.722;12.012;2022-09-23T09:51:25;101140.97;;;15.37;100.00
19600;BME280;9947;57.722;12.012;2022-09-23T09:53:54;101132.19;;;15.33;100.00
19600;BME280;9947;57.722;12.012;2022-09-23T09:56:42;101136.09;;;15.50;100.00
19600;BME280;9947;57.722;12.012;2022-09-23T09:59:14;101128.34;;;15.46;100.00
19600;BME280;9947;57.722;12.012;2022-09-23T10:01:42;101129.00;;;15.68;100.00
19600;BME280;9947;57.722;12.012;2022-09-23T10:04:20;101132.06;;;15.94;100.00
19600;BME280;9947;57.722;12.012;2022-09-23T10:07:07;101129.50;;;15.53;100.00
19600;BME280;9947;57.722;12.012;2022-09-23T10:09:38;101128.00;;;15.69;100.00
19600;BME280;9947;57.722;12.012;2022-09-23T10:12:21;101125.44;;;15.87;100.00
19600;BME280;9947;57.722;12.012;2022-09-23T10:14:49;101126.03;;;16.00;100.00
19600;BME280;9947;57.722;12.012;2022-09-23T10:17:19;101124.84;;;15.64;100.00
19600;BME280;9947;57.722;12.012;2022-09-23T10:19:48;101124.13;;;15.82;100.00
19600;BME280;9947;57.722;12.012;2022-09-23T10:22:19;101119.41;;;15.84;100.00
19600;BME280;9947;57.722;12.012;2022-09-23T10:24:48;101111.41;;;15.92;100.00
19600;BME280;9947;57.722;12.012;2022-09-23T10:27:26;101116.69;;;15.64;100.00
19600;BME280;9947;57.722;12.012;2022-09-23T10:29:57;101111.38;;;15.72;100.00
19600;BME280;9947;57.722;12.012;2022-09-23T10:32:29;101110.81;;;15.88;100.00
19600;BME280;9947;57.722;12.012;2022-09-23T10:35:01;101115.41;;;16.17;100.00
19600;BME280;9947;57.722;12.012;2022-09-23T10:37:35;101110.97;;;15.96;100.00
19600;BME280;9947;57.722;12.012;2022-09-23T10:40:15;101104.66;;;15.96;100.00
19600;BME280;9947;57.722;12.012;2022-09-23T10:43:19;101102.06;;;16.04;100.00
19600;BME280;9947;57.722;12.012;2022-09-23T10:46:08;101106.78;;;16.21;100.00
19600;BME280;9947;57.722;12.012;2022-09-23T10:51:57;101097.56;;;16.32;100.00
19600;BME280;9947;57.722;12.012;2022-09-23T10:54:34;101096.13;;;16.47;100.00
19600;BME280;9947;57.722;12.012;2022-09-23T10:57:10;101095.97;;;16.49;100.00
19600;BME280;9947;57.722;12.012;2022-09-23T11:00:02;101088.13;;;16.07;100.00
19600;BME280;9947;57.722;12.012;2022-09-23T11:02:53;101086.56;;;15.95;100.00
19600;BME280;9947;57.722;12.012;2022-09-23T11:05:30;101094.16;;;16.01;100.00
19600;BME280;9947;57.722;12.012;2022-09-23T11:08:07;101100.50;;;15.92;100.00
19600;BME280;9947;57.722;12.012;2022-09-23T11:10:57;101100.03;;;15.77;100.00
19600;BME280;9947;57.722;12.012;2022-09-23T11:13:41;101097.88;;;15.81;100.00
19600;BME280;9947;57.722;12.012;2022-09-23T11:16:23;101093.28;;;15.81;100.00
19600;BME280;9947;57.722;12.012;2022-09-23T11:19:14;101089.53;;;16.30;100.00
19600;BME280;9947;57.722;12.012;2022-09-23T11:22:02;101082.66;;;16.26;100.00
19600;BME280;9947;57.722;12.012;2022-09-23T11:24:58;101086.09;;;16.28;100.00
19600;BME280;9947;57.722;12.012;2022-09-23T11:27:39;101082.47;;;16.38;94.26
19600;BME280;9947;57.722;12.012;2022-09-23T11:30:12;101091.94;;;16.72;92.67
19600;BME280;9947;57.722;12.012;2022-09-23T11:33:02;101080.09;;;17.18;92.53
19600;BME280;9947;57.722;12.012;2022-09-23T11:35:34;101080.38;;;17.15;94.05
19600;BME280;9947;57.722;12.012;2022-09-23T11:38:07;101079.69;;;16.76;94.53
19600;BME280;9947;57.722;12.012;2022-09-23T11:40:37;101071.25;;;16.50;95.33
19600;BME280;9947;57.722;12.012;2022-09-23T11:43:15;101077.06;;;16.09;96.99
19600;BME280;9947;57.722;12.012;2022-09-23T11:45:46;101080.84;;;15.88;97.83
19600;BME280;9947;57.722;12.012;2022-09-23T11:48:22;101077.22;;;15.68;96.18
19600;BME280;9947;57.722;12.012;2022-09-23T11:50:56;101076.38;;;15.78;98.27
19600;BME280;9947;57.722;12.012;2022-09-23T11:53:33;101076.09;;;15.90;98.34
19600;BME280;9947;57.722;12.012;2022-09-23T11:56:10;101069.50;;;15.93;97.72
19600;BME280;9947;57.722;12.012;2022-09-23T11:58:44;101067.91;;;15.81;98.21
19600;BME280;9947;57.722;12.012;2022-09-23T12:01:18;101072.06;;;16.04;98.66
19600;BME280;9947;57.722;12.012;2022-09-23T12:03:55;101061.03;;;15.96;100.00
19600;BME280;9947;57.722;12.012;2022-09-23T12:06:32;101066.19;;;15.99;100.00
19600;BME280;9947;57.722;12.012;2022-09-23T12:09:14;101065.88;;;16.21;100.00
19600;BME280;9947;57.722;12.012;2022-09-23T12:11:49;101062.97;;;16.42;100.00
19600;BME280;9947;57.722;12.012;2022-09-23T12:14:26;101057.47;;;16.52;100.00
19600;BME280;9947;57.722;12.012;2022-09-23T12:17:05;101058.47;;;16.70;98.47
19600;BME280;9947;57.722;12.012;2022-09-23T12:20:02;101064.78;;;16.71;97.98
19600;BME280;9947;57.722;12.012;2022-09-23T12:22:43;101059.13;;;16.82;98.42
19600;BME280;9947;57.722;12.012;2022-09-23T12:25:35;101051.41;;;16.58;99.99
19600;BME280;9947;57.722;12.012;2022-09-23T12:28:08;101055.28;;;16.55;100.00
19600;BME280;9947;57.722;12.012;2022-09-23T12:30:37;101056.31;;;16.54;100.00
19600;BME280;9947;57.722;12.012;2022-09-23T12:33:07;101054.75;;;16.52;100.00
19600;BME280;9947;57.722;12.012;2022-09-23T12:35:40;101055.00;;;16.58;100.00
19600;BME280;9947;57.722;12.012;2022-09-23T12:38:13;101052.88;;;16.52;100.00
19600;BME280;9947;57.722;12.012;2022-09-23T12:40:43;101053.63;;;16.45;100.00
19600;BME280;9947;57.722;12.012;2022-09-23T12:43:16;101046.22;;;16.08;100.00
19600;BME280;9947;57.722;12.012;2022-09-23T12:45:43;101043.81;;;15.95;100.00
19600;BME280;9947;57.722;12.012;2022-09-23T12:48:44;101051.53;;;16.00;100.00
19600;BME280;9947;57.722;12.012;2022-09-23T12:51:21;101042.94;;;15.95;100.00
19600;BME280;9947;57.722;12.012;2022-09-23T12:57:02;101040.63;;;15.81;100.00
19600;BME280;9947;57.722;12.012;2022-09-23T12:59:31;101041.38;;;15.92;100.00
19600;BME280;9947;57.722;12.012;2022-09-23T13:02:22;101037.03;;;16.09;100.00
19600;BME280;9947;57.722;12.012;2022-09-23T13:04:56;101037.16;;;16.08;100.00
19600;BME280;9947;57.722;12.012;2022-09-23T13:07:47;101036.44;;;16.25;100.00
19600;BME280;9947;57.722;12.012;2022-09-23T13:10:19;101040.06;;;15.87;100.00
19600;BME280;9947;57.722;12.012;2022-09-23T13:12:49;101039.34;;;15.85;100.00
19600;BME280;9947;57.722;12.012;2022-09-23T13:15:26;101037.50;;;15.76;100.00
19600;BME280;9947;57.722;12.012;2022-09-23T13:21:18;101041.50;;;15.71;100.00
19600;BME280;9947;57.722;12.012;2022-09-23T13:24:19;101038.50;;;15.75;100.00
19600;BME280;9947;57.722;12.012;2022-09-23T13:27:03;101037.44;;;15.56;100.00